sensor_id;sensor_type;location;lat;lon;timestamp;pressure;altitude;pressure_sealevel;temperature;humidity
63132;BME280;49234;35.600;139.358;2023-01-28T00:01:46;99432.29;;;4.27;32.06
63132;BME280;49234;35.600;139.358;2023-01-28T00:04:16;99429.76;;;4.32;32.41
63132;BME280;49234;35.600;139.358;2023-01-28T00:06:47;99430.01;;;4.25;32.30
63132;BME280;49234;35.600;139.358;2023-01-28T00:09:16;99430.36;;;4.21;31.86
63132;BME280;49234;35.600;139.358;2023-01-28T00:11:45;99426.44;;;4.59;30.61
63132;BME280;49234;35.600;139.358;2023-01-28T00:14:22;99433.22;;;4.39;31.60
63132;BME280;49234;35.600;139.358;2023-01-28T00:17:58;99437.54;;;4.86;30.85
63132;BME280;49234;35.600;139.358;2023-01-28T00:20:41;99441.28;;;4.09;31.40
63132;BME280;49234;35.600;139.358;2023-01-28T00:26:34;99434.91;;;4.91;29.20
63132;BME280;49234;35.600;139.358;2023-01-28T00:29:04;99439.83;;;4.64;29.94
63132;BME280;49234;35.600;139.358;2023-01-28T00:31:33;99442.08;;;5.11;28.73
63132;BME280;49234;35.600;139.358;2023-01-28T00:34:03;99442.11;;;4.83;30.21
63132;BME280;49234;35.600;139.358;2023-01-28T00:36:34;99442.93;;;4.67;30.45
63132;BME280;49234;35.600;139.358;2023-01-28T00:39:03;99451.10;;;4.90;28.60
63132;BME280;49234;35.600;139.358;2023-01-28T00:41:33;99450.05;;;5.10;30.23
63132;BME280;49234;35.600;139.358;2023-01-28T00:44:04;99446.69;;;4.68;29.30
63132;BME280;49234;35.600;139.358;2023-01-28T00:46:34;99436.99;;;5.17;29.08
63132;BME280;49234;35.600;139.358;2023-01-28T00:49:04;99438.22;;;5.04;27.49
63132;BME280;49234;35.600;139.358;2023-01-28T00:51:33;99439.77;;;5.31;26.64
63132;BME280;49234;35.600;139.358;2023-01-28T00:54:08;99442.21;;;5.34;27.45
63132;BME280;49234;35.600;139.358;2023-01-28T00:56:38;99441.85;;;5.32;28.80
63132;BME280;49234;35.600;139.358;2023-01-28T00:59:07;99439.14;;;5.42;28.95
63132;BME280;49234;35.600;139.358;2023-01-28T01:01:36;99437.82;;;5.45;29.23
63132;BME280;49234;35.600;139.358;2023-01-28T01:04:06;99435.75;;;5.42;29.80
63132;BME280;49234;35.600;139.358;2023-01-28T01:06:37;99436.88;;;5.61;27.59
63132;BME280;49234;35.600;139.358;2023-01-28T01:09:10;99438.94;;;5.61;30.24
63132;BME280;49234;35.600;139.358;2023-01-28T01:11:39;99437.36;;;5.49;29.68
63132;BME280;49234;35.600;139.358;2023-01-28T01:14:10;99433.80;;;5.61;29.00
63132;BME280;49234;35.600;139.358;2023-01-28T01:16:39;99437.86;;;5.33;29.05
63132;BME280;49234;35.600;139.358;2023-01-28T01:19:08;99434.51;;;5.51;28.87
63132;BME280;49234;35.600;139.358;2023-01-28T01:21:37;99436.07;;;5.94;27.05
63132;BME280;49234;35.600;139.358;2023-01-28T01:24:06;99435.33;;;5.60;29.56
63132;BME280;49234;35.600;139.358;2023-01-28T01:26:36;99431.54;;;5.88;30.03
63132;BME280;49234;35.600;139.358;2023-01-28T01:29:06;99424.79;;;5.68;29.23
63132;BME280;49234;35.600;139.358;2023-01-28T01:31:35;99423.24;;;5.82;29.39
63132;BME280;49234;35.600;139.358;2023-01-28T01:34:04;99423.87;;;5.39;30.44
63132;BME280;49234;35.600;139.358;2023-01-28T01:36:33;99423.28;;;5.98;29.88
63132;BME280;49234;35.600;139.358;2023-01-28T01:39:03;99418.50;;;5.90;27.46
63132;BME280;49234;35.600;139.358;2023-01-28T01:41:33;99412.23;;;5.96;28.57
63132;BME280;49234;35.600;139.358;2023-01-28T01:44:04;99407.53;;;5.64;27.96
63132;BME280;49234;35.600;139.358;2023-01-28T01:46:38;99404.91;;;5.95;28.63
63132;BME280;49234;35.600;139.358;2023-01-28T01:49:14;99400.44;;;5.78;29.28
63132;BME280;49234;35.600;139.358;2023-01-28T01:51:49;99396.49;;;5.96;29.81
63132;BME280;49234;35.600;139.358;2023-01-28T01:54:21;99391.41;;;5.60;30.57
63132;BME280;49234;35.600;139.358;2023-01-28T01:56:53;99386.44;;;6.09;30.79
63132;BME280;49234;35.600;139.358;2023-01-28T01:59:26;99376.31;;;6.27;27.35
63132;BME280;49234;35.600;139.358;2023-01-28T02:01:59;99371.51;;;6.36;31.02
63132;BME280;49234;35.600;139.358;2023-01-28T02:04:32;99370.21;;;5.89;29.04
63132;BME280;49234;35.600;139.358;2023-01-28T02:07:04;99360.49;;;5.98;28.33
63132;BME280;49234;35.600;139.358;2023-01-28T02:09:35;99359.54;;;6.62;27.56
63132;BME280;49234;35.600;139.358;2023-01-28T02:12:07;99356.05;;;6.16;28.44
63132;BME280;49234;35.600;139.358;2023-01-28T02:14:41;99342.55;;;6.06;30.85
63132;BME280;49234;35.600;139.358;2023-01-28T02:17:12;99334.83;;;6.10;29.38
63132;BME280;49234;35.600;139.358;2023-01-28T02:19:45;99335.05;;;5.99;28.61
63132;BME280;49234;35.600;139.358;2023-01-28T02:22:32;99334.18;;;6.17;29.59
63132;BME280;49234;35.600;139.358;2023-01-28T15:05:48;99608.73;;;2.66;38.36
63132;BME280;49234;35.600;139.358;2023-01-28T15:08:22;99609.98;;;4.32;36.06
63132;BME280;49234;35.600;139.358;2023-01-28T15:26:59;99641.20;;;4.37;37.86
63132;BME280;49234;35.600;139.358;2023-01-28T15:29:32;99640.38;;;2.97;36.71
63132;BME280;49234;35.600;139.358;2023-01-28T15:32:02;99636.49;;;4.12;35.97
63132;BME280;49234;35.600;139.358;2023-01-28T15:34:32;99639.69;;;4.56;35.90
63132;BME280;49234;35.600;139.358;2023-01-28T15:37:01;99639.13;;;4.58;35.58
63132;BME280;49234;35.600;139.358;2023-01-28T15:39:30;99640.83;;;4.66;35.62
63132;BME280;49234;35.600;139.358;2023-01-28T15:42:03;99644.61;;;4.35;36.80
63132;BME280;49234;35.600;139.358;2023-01-28T15:44:36;99651.15;;;4.19;37.44
63132;BME280;49234;35.600;139.358;2023-01-28T15:47:15;99652.57;;;4.12;38.00
63132;BME280;49234;35.600;139.358;2023-01-28T15:49:47;99657.26;;;4.02;38.00
63132;BME280;49234;35.600;139.358;2023-01-28T15:52:18;99659.91;;;4.03;36.83
63132;BME280;49234;35.600;139.358;2023-01-28T15:54:50;99665.18;;;4.32;35.60
63132;BME280;49234;35.600;139.358;2023-01-28T15:57:21;99676.42;;;4.31;35.49
63132;BME280;49234;35.600;139.358;2023-01-28T16:00:10;99688.36;;;4.23;35.11
63132;BME280;49234;35.600;139.358;2023-01-28T16:02:44;99689.62;;;4.17;35.22
63132;BME280;49234;35.600;139.358;2023-01-28T16:05:31;99694.69;;;4.12;34.91
63132;BME280;49234;35.600;139.358;2023-01-28T16:08:06;99694.65;;;4.07;36.79
63132;BME280;49234;35.600;139.358;2023-01-28T16:10:36;99691.61;;;4.07;35.79
63132;BME280;49234;35.600;139.358;2023-01-28T16:13:15;99682.18;;;4.05;36.32
63132;BME280;49234;35.600;139.358;2023-01-28T16:15:49;99681.58;;;4.09;34.97
63132;BME280;49234;35.600;139.358;2023-01-28T16:18:28;99679.25;;;4.02;34.63
63132;BME280;49234;35.600;139.358;2023-01-28T16:20:58;99678.00;;;3.72;35.43
63132;BME280;49234;35.600;139.358;2023-01-28T16:23:28;99673.05;;;3.74;37.58
63132;BME280;49234;35.600;139.358;2023-01-28T16:26:01;99666.83;;;3.79;36.80
63132;BME280;49234;35.600;139.358;2023-01-28T16:28:31;99668.43;;;3.84;36.13
63132;BME280;49234;35.600;139.358;2023-01-28T16:31:01;99667.85;;;3.89;36.98
63132;BME280;49234;35.600;139.358;2023-01-28T16:33:30;99662.43;;;3.69;37.41
63132;BME280;49234;35.600;139.358;2023-01-28T16:35:58;99660.77;;;3.91;37.53
63132;BME280;49234;35.600;139.358;2023-01-28T16:38:27;99653.33;;;3.94;37.35
63132;BME280;49234;35.600;139.358;2023-01-28T16:40:59;99648.86;;;3.97;36.84
63132;BME280;49234;35.600;139.358;2023-01-28T16:43:28;99654.37;;;3.93;38.07
63132;BME280;49234;35.600;139.358;2023-01-28T16:45:57;99661.63;;;3.80;38.15
63132;BME280;49234;35.600;139.358;2023-01-28T16:48:26;99660.19;;;3.74;38.39
63132;BME280;49234;35.600;139.358;2023-01-28T16:50:55;99653.48;;;3.76;37.85
63132;BME280;49234;35.600;139.358;2023-01-28T16:53:29;99653.48;;;3.80;37.34
63132;BME280;49234;35.600;139.358;2023-01-28T16:56:00;99657.13;;;3.73;38.14
63132;BME280;49234;35.600;139.358;2023-01-28T16:58:29;99665.88;;;3.74;37.62
63132;BME280;49234;35.600;139.358;2023-01-28T17:00:59;99676.99;;;3.82;35.97
63132;BME280;49234;35.600;139.358;2023-01-28T17:03:29;99687.07;;;3.86;36.48
63132;BME280;49234;35.600;139.358;2023-01-28T17:05:59;99691.70;;;3.84;36.60
63132;BME280;49234;35.600;139.358;2023-01-28T17:08:27;99703.93;;;4.10;37.27
63132;BME280;49234;35.600;139.358;2023-01-28T17:10:57;99712.79;;;3.98;38.28
63132;BME280;49234;35.600;139.358;2023-01-28T17:13:26;99708.36;;;3.76;37.37
63132;BME280;49234;35.600;139.358;2023-01-28T17:15:56;99700.80;;;3.74;36.12
63132;BME280;49234;35.600;139.358;2023-01-28T17:18:25;99689.10;;;3.68;35.49
63132;BME280;49234;35.600;139.358;2023-01-28T17:20:59;99690.95;;;3.65;36.44
63132;BME280;49234;35.600;139.358;2023-01-28T17:23:28;99699.28;;;3.61;35.86
63132;BME280;49234;35.600;139.358;2023-01-28T17:26:02;99713.12;;;4.09;35.76
63132;BME280;49234;35.600;139.358;2023-01-28T17:28:30;99719.23;;;3.50;38.18
63132;BME280;49234;35.600;139.358;2023-01-28T17:31:01;99720.51;;;3.46;38.75
63132;BME280;49234;35.600;139.358;2023-01-28T17:33:32;99720.58;;;3.80;38.17
63132;BME280;49234;35.600;139.358;2023-01-28T17:36:02;99709.70;;;3.54;35.97
63132;BME280;49234;35.600;139.358;2023-01-28T17:38:31;99708.34;;;3.47;35.95
63132;BME280;49234;35.600;139.358;2023-01-28T17:41:03;99707.10;;;3.43;37.50
63132;BME280;49234;35.600;139.358;2023-01-28T17:43:32;99707.00;;;3.75;38.83
63132;BME280;49234;35.600;139.358;2023-01-28T17:46:09;99704.03;;;3.32;38.00
63132;BME280;49234;35.600;139.358;2023-01-28T17:48:38;99687.42;;;3.43;37.75
63132;BME280;49234;35.600;139.358;2023-01-28T17:51:07;99679.21;;;3.41;37.93
63132;BME280;49234;35.600;139.358;2023-01-28T17:53:37;99677.76;;;3.39;37.61
63132;BME280;49234;35.600;139.358;2023-01-28T17:56:15;99676.46;;;3.68;37.98
63132;BME280;49234;35.600;139.358;2023-01-28T17:58:48;99679.13;;;3.15;38.62
63132;BME280;49234;35.600;139.358;2023-01-28T18:01:17;99692.84;;;3.35;38.86
63132;BME280;49234;35.600;139.358;2023-01-28T18:03:47;99693.69;;;3.18;37.48
63132;BME280;49234;35.600;139.358;2023-01-28T18:06:16;99689.44;;;3.49;37.69
63132;BME280;49234;35.600;139.358;2023-01-28T18:08:45;99685.96;;;3.67;37.18
63132;BME280;49234;35.600;139.358;2023-01-28T18:11:16;99683.23;;;3.14;37.88
63132;BME280;49234;35.600;139.358;2023-01-28T18:13:46;99675.28;;;3.40;38.35
63132;BME280;49234;35.600;139.358;2023-01-28T18:16:17;99670.35;;;3.16;38.17
63132;BME280;49234;35.600;139.358;2023-01-28T18:18:48;99675.24;;;3.59;37.97
63132;BME280;49234;35.600;139.358;2023-01-28T18:21:29;99677.17;;;3.45;38.29
63132;BME280;49234;35.600;139.358;2023-01-28T18:23:59;99687.84;;;3.16;38.62
63132;BME280;49234;35.600;139.358;2023-01-28T18:26:27;99691.80;;;2.87;38.52
63132;BME280;49234;35.600;139.358;2023-01-28T18:29:09;99699.78;;;3.39;37.70
63132;BME280;49234;35.600;139.358;2023-01-28T18:31:38;99703.56;;;3.41;37.89
63132;BME280;49234;35.600;139.358;2023-01-28T18:34:07;99705.22;;;3.40;38.03
63132;BME280;49234;35.600;139.358;2023-01-28T18:36:36;99708.96;;;3.29;38.72
63132;BME280;49234;35.600;139.358;2023-01-28T18:39:06;99712.79;;;3.13;35.96
63132;BME280;49234;35.600;139.358;2023-01-28T18:41:37;99703.65;;;3.28;35.92
63132;BME280;49234;35.600;139.358;2023-01-28T18:44:07;99695.69;;;2.92;37.64
63132;BME280;49234;35.600;139.358;2023-01-28T18:46:36;99703.95;;;3.11;37.75
63132;BME280;49234;35.600;139.358;2023-01-28T18:49:05;99710.18;;;3.11;37.43
63132;BME280;49234;35.600;139.358;2023-01-28T18:52:13;99713.79;;;2.88;37.16
63132;BME280;49234;35.600;139.358;2023-01-28T18:55:09;99725.01;;;2.83;38.98
63132;BME280;49234;35.600;139.358;2023-01-28T18:57:43;99729.72;;;3.06;38.98
63132;BME280;49234;35.600;139.358;2023-01-28T19:00:12;99732.74;;;3.09;36.91
63132;BME280;49234;35.600;139.358;2023-01-28T19:02:41;99729.92;;;3.02;36.89
63132;BME280;49234;35.600;139.358;2023-01-28T19:05:10;99729.91;;;3.04;38.09
63132;BME280;49234;35.600;139.358;2023-01-28T19:07:40;99738.08;;;3.02;37.81
63132;BME280;49234;35.600;139.358;2023-01-28T19:10:09;99738.63;;;3.09;37.86
63132;BME280;49234;35.600;139.358;2023-01-28T19:12:38;99750.13;;;2.84;38.16
63132;BME280;49234;35.600;139.358;2023-01-28T19:15:08;99755.59;;;2.99;38.76
63132;BME280;49234;35.600;139.358;2023-01-28T19:17:37;99760.25;;;2.84;39.99
63132;BME280;49234;35.600;139.358;2023-01-28T19:20:07;99768.00;;;2.92;39.30
63132;BME280;49234;35.600;139.358;2023-01-28T19:22:37;99777.57;;;2.94;39.14
63132;BME280;49234;35.600;139.358;2023-01-28T19:25:07;99787.06;;;2.93;38.29
63132;BME280;49234;35.600;139.358;2023-01-28T19:27:36;99792.75;;;2.89;38.54
63132;BME280;49234;35.600;139.358;2023-01-28T19:30:07;99793.48;;;2.89;38.19
63132;BME280;49234;35.600;139.358;2023-01-28T19:32:37;99786.44;;;2.90;38.68
63132;BME280;49234;35.600;139.358;2023-01-28T19:35:06;99784.55;;;2.93;38.85
63132;BME280;49234;35.600;139.358;2023-01-28T19:37:35;99789.01;;;2.98;38.50
63132;BME280;49234;35.600;139.358;2023-01-28T19:40:05;99795.91;;;3.00;38.16
63132;BME280;49234;35.600;139.358;2023-01-28T19:42:34;99798.99;;;2.96;37.50
63132;BME280;49234;35.600;139.358;2023-01-28T19:45:03;99803.60;;;2.93;36.14
63132;BME280;49234;35.600;139.358;2023-01-28T19:47:32;99807.89;;;2.88;36.21
63132;BME280;49234;35.600;139.358;2023-01-28T19:50:01;99810.36;;;2.80;36.56
63132;BME280;49234;35.600;139.358;2023-01-28T19:52:31;99815.03;;;2.78;37.89
63132;BME280;49234;35.600;139.358;2023-01-28T19:55:00;99823.44;;;2.77;37.81
63132;BME280;49234;35.600;139.358;2023-01-28T19:57:29;99830.01;;;2.77;37.55
63132;BME280;49234;35.600;139.358;2023-01-28T19:59:58;99827.10;;;2.91;38.07
63132;BME280;49234;35.600;139.358;2023-01-28T20:02:27;99823.86;;;2.67;39.04
63132;BME280;49234;35.600;139.358;2023-01-28T20:04:56;99819.72;;;2.70;37.49
63132;BME280;49234;35.600;139.358;2023-01-28T20:07:25;99823.66;;;2.73;37.98
63132;BME280;49234;35.600;139.358;2023-01-28T20:09:54;99821.58;;;2.65;39.17
63132;BME280;49234;35.600;139.358;2023-01-28T20:12:22;99823.78;;;2.53;38.84
63132;BME280;49234;35.600;139.358;2023-01-28T20:14:51;99823.45;;;2.53;39.19
63132;BME280;49234;35.600;139.358;2023-01-28T20:17:21;99820.46;;;2.58;38.51
63132;BME280;49234;35.600;139.358;2023-01-28T20:19:50;99812.77;;;2.56;38.99
63132;BME280;49234;35.600;139.358;2023-01-28T20:22:19;99819.42;;;2.68;38.49
63132;BME280;49234;35.600;139.358;2023-01-28T20:24:48;99819.79;;;2.86;39.02
63132;BME280;49234;35.600;139.358;2023-01-28T20:27:17;99823.59;;;2.62;37.84
63132;BME280;49234;35.600;139.358;2023-01-28T20:29:47;99827.71;;;2.81;38.05
63132;BME280;49234;35.600;139.358;2023-01-28T20:32:16;99832.16;;;2.53;37.94
63132;BME280;49234;35.600;139.358;2023-01-28T20:34:45;99842.38;;;2.63;39.22
63132;BME280;49234;35.600;139.358;2023-01-28T20:37:14;99852.25;;;2.55;39.38
63132;BME280;49234;35.600;139.358;2023-01-28T20:39:43;99851.03;;;2.66;38.66
63132;BME280;49234;35.600;139.358;2023-01-28T20:42:12;99846.23;;;2.47;38.16
63132;BME280;49234;35.600;139.358;2023-01-28T20:44:41;99838.27;;;2.71;38.33
63132;BME280;49234;35.600;139.358;2023-01-28T20:47:10;99841.32;;;2.30;39.77
63132;BME280;49234;35.600;139.358;2023-01-28T20:49:39;99847.71;;;2.57;39.55
63132;BME280;49234;35.600;139.358;2023-01-28T20:52:08;99846.73;;;2.47;38.57
63132;BME280;49234;35.600;139.358;2023-01-28T20:54:36;99849.19;;;2.56;37.15
63132;BME280;49234;35.600;139.358;2023-01-28T20:57:05;99852.45;;;2.50;36.99
63132;BME280;49234;35.600;139.358;2023-01-28T20:59:35;99857.21;;;2.37;38.26
63132;BME280;49234;35.600;139.358;2023-01-28T21:02:04;99862.27;;;2.05;39.66
63132;BME280;49234;35.600;139.358;2023-01-28T21:04:34;99870.41;;;2.02;39.68
63132;BME280;49234;35.600;139.358;2023-01-28T21:07:04;99876.50;;;2.28;38.55
63132;BME280;49234;35.600;139.358;2023-01-28T21:09:32;99878.02;;;2.01;37.98
63132;BME280;49234;35.600;139.358;2023-01-28T21:12:01;99874.12;;;1.97;37.73
63132;BME280;49234;35.600;139.358;2023-01-28T21:14:30;99870.44;;;2.08;39.63
63132;BME280;49234;35.600;139.358;2023-01-28T21:16:59;99878.14;;;1.79;40.11
63132;BME280;49234;35.600;139.358;2023-01-28T21:19:28;99885.74;;;2.16;39.63
63132;BME280;49234;35.600;139.358;2023-01-28T21:21:56;99893.15;;;1.97;40.10
63132;BME280;49234;35.600;139.358;2023-01-28T21:24:25;99897.25;;;2.10;38.28
63132;BME280;49234;35.600;139.358;2023-01-28T21:26:54;99894.36;;;2.37;37.57
63132;BME280;49234;35.600;139.358;2023-01-28T21:29:24;99899.11;;;2.03;39.13
63132;BME280;49234;35.600;139.358;2023-01-28T21:31:53;99907.67;;;1.91;40.19
63132;BME280;49234;35.600;139.358;2023-01-28T21:34:23;99911.02;;;2.25;38.21
63132;BME280;49234;35.600;139.358;2023-01-28T21:36:52;99911.12;;;2.03;38.53
63132;BME280;49234;35.600;139.358;2023-01-28T21:39:21;99914.69;;;1.96;38.85
63132;BME280;49234;35.600;139.358;2023-01-28T21:41:50;99918.19;;;1.96;39.15
63132;BME280;49234;35.600;139.358;2023-01-28T21:44:19;99919.85;;;1.88;40.08
63132;BME280;49234;35.600;139.358;2023-01-28T21:46:48;99919.17;;;1.92;39.64
63132;BME280;49234;35.600;139.358;2023-01-28T21:49:18;99919.16;;;1.92;37.57
63132;BME280;49234;35.600;139.358;2023-01-28T21:51:47;99921.86;;;1.91;39.13
63132;BME280;49234;35.600;139.358;2023-01-28T21:54:17;99922.23;;;2.03;39.54
63132;BME280;49234;35.600;139.358;2023-01-28T21:56:52;99921.15;;;1.80;38.58
63132;BME280;49234;35.600;139.358;2023-01-28T21:59:21;99923.43;;;2.13;38.22
63132;BME280;49234;35.600;139.358;2023-01-28T22:01:51;99926.31;;;1.77;39.33
63132;BME280;49234;35.600;139.358;2023-01-28T22:04:27;99922.42;;;2.01;39.24
63132;BME280;49234;35.600;139.358;2023-01-28T22:06:58;99917.39;;;1.73;39.60
63132;BME280;49234;35.600;139.358;2023-01-28T22:09:28;99918.80;;;1.97;38.99
63132;BME280;49234;35.600;139.358;2023-01-28T22:11:57;99926.68;;;1.74;37.39
63132;BME280;49234;35.600;139.358;2023-01-28T22:14:26;99936.13;;;1.71;37.04
63132;BME280;49234;35.600;139.358;2023-01-28T22:17:11;99941.18;;;1.69;37.44
63132;BME280;49234;35.600;139.358;2023-01-28T22:19:48;99938.71;;;1.67;37.16
63132;BME280;49234;35.600;139.358;2023-01-28T22:22:17;99940.60;;;1.87;38.90
63132;BME280;49234;35.600;139.358;2023-01-28T22:24:46;99944.93;;;1.99;38.96
63132;BME280;49234;35.600;139.358;2023-01-28T22:27:15;99942.03;;;1.76;39.47
63132;BME280;49234;35.600;139.358;2023-01-28T22:29:44;99950.03;;;1.88;39.08
63132;BME280;49234;35.600;139.358;2023-01-28T22:32:13;99954.56;;;1.90;37.73
63132;BME280;49234;35.600;139.358;2023-01-28T22:34:43;99954.72;;;2.17;37.53
63132;BME280;49234;35.600;139.358;2023-01-28T22:37:12;99954.77;;;1.88;38.61
63132;BME280;49234;35.600;139.358;2023-01-28T22:39:41;99957.77;;;2.23;39.37
63132;BME280;49234;35.600;139.358;2023-01-28T22:42:11;99959.29;;;1.99;38.27
63132;BME280;49234;35.600;139.358;2023-01-28T22:44:40;99966.67;;;2.05;38.16
63132;BME280;49234;35.600;139.358;2023-01-28T22:47:09;99969.93;;;2.08;38.79
63132;BME280;49234;35.600;139.358;2023-01-28T22:49:38;99967.37;;;2.16;39.25
63132;BME280;49234;35.600;139.358;2023-01-28T22:52:07;99967.78;;;2.21;40.13
63132;BME280;49234;35.600;139.358;2023-01-28T22:54:36;99972.32;;;1.95;40.37
63132;BME280;49234;35.600;139.358;2023-01-28T22:57:04;99976.52;;;2.27;39.21
63132;BME280;49234;35.600;139.358;2023-01-28T22:59:33;99979.65;;;2.37;39.51
63132;BME280;49234;35.600;139.358;2023-01-28T23:02:02;99979.82;;;2.39;39.54
63132;BME280;49234;35.600;139.358;2023-01-28T23:04:31;99981.85;;;2.44;39.26
63132;BME280;49234;35.600;139.358;2023-01-28T23:07:00;99982.63;;;2.55;39.64
63132;BME280;49234;35.600;139.358;2023-01-28T23:09:29;99991.12;;;2.68;39.69
63132;BME280;49234;35.600;139.358;2023-01-28T23:11:58;99999.28;;;2.54;38.82
63132;BME280;49234;35.600;139.358;2023-01-28T23:14:27;100003.50;;;2.61;39.06
63132;BME280;49234;35.600;139.358;2023-01-28T23:16:56;100006.74;;;2.89;39.01
63132;BME280;49234;35.600;139.358;2023-01-28T23:19:26;100010.97;;;2.68;39.07
63132;BME280;49234;35.600;139.358;2023-01-28T23:21:55;100016.74;;;2.77;39.01
63132;BME280;49234;35.600;139.358;2023-01-28T23:24:26;100023.24;;;2.86;38.98
63132;BME280;49234;35.600;139.358;2023-01-28T23:26:57;100033.27;;;2.91;38.23
63132;BME280;49234;35.600;139.358;2023-01-28T23:29:28;100032.06;;;2.99;38.75
63132;BME280;49234;35.600;139.358;2023-01-28T23:31:59;100032.71;;;3.07;38.98
63132;BME280;49234;35.600;139.358;2023-01-28T23:34:31;100036.60;;;3.15;38.88
63132;BME280;49234;35.600;139.358;2023-01-28T23:37:01;100039.47;;;2.98;38.84
63132;BME280;49234;35.600;139.358;2023-01-28T23:39:30;100038.33;;;3.27;38.63
63132;BME280;49234;35.600;139.358;2023-01-28T23:42:07;100043.20;;;3.32;38.58
63132;BME280;49234;35.600;139.358;2023-01-28T23:44:36;100042.40;;;3.35;38.45
63132;BME280;49234;35.600;139.358;2023-01-28T23:47:06;100042.88;;;3.38;38.22
63132;BME280;49234;35.600;139.358;2023-01-28T23:49:36;100042.78;;;3.23;38.20
63132;BME280;49234;35.600;139.358;2023-01-28T23:52:06;100043.86;;;3.33;38.38
63132;BME280;49234;35.600;139.358;2023-01-28T23:54:37;100042.35;;;3.59;38.65
63132;BME280;49234;35.600;139.358;2023-01-28T23:57:05;100040.30;;;3.65;38.28
63132;BME280;49234;35.600;139.358;2023-01-28T23:59:34;100041.45;;;3.15;37.45
